Portada
METAR-TAF:

METAR-TAF

Aeropuertos :

Madison, Indiana, Estados Unidos

latitud: 38-45-36N, longitud: 085-27-53W, altitud: 250 m

Observación

El informe se hizo hace 23 minutos, a las 19:15 UTC
Viento 3 kt del oeste-suroeste
Temperatura 30°C
Humedad 49%
Presión 1025 hPa
Visibilidad: 16.1 km
Cielo despejado

METAR: KIMS 191915Z AUTO 25003KT 10SM CLR 30/18 A3028 RMK AO2

Hora: 15:38 (19:38 UTC)


TAF: falta

Observaciones y pronósticos meteorológicos de más de 4000 aeropuertos (mensajes METAR y TAF).

Los puntos amarillos y rojos representan las estaciones disponibles.

Ponga el ratón en el punto deseado para ver el nombre de la estación.

Haga clic para ver las observaciones y los pronósticos meteorológicos.

Para cambiar el mapa : haga clic en los botones verdes con una cruz de color negro para hacer un zoom, en el botón verde con un guión para alejar o en las flechas verdes para mapas adyacentes.


METAR-TAF: